createdAt,value
2023-01-10T00:01:41.027Z,23.60
2023-01-10T00:04:09.600Z,25.83
2023-01-10T00:06:37.208Z,25.42
2023-01-10T00:09:04.701Z,24.48
2023-01-10T00:11:50.385Z,28.30
2023-01-10T00:14:18.925Z,24.67
2023-01-10T00:16:46.391Z,21.48
2023-01-10T00:19:13.879Z,23.45
2023-01-10T00:21:41.244Z,23.15
2023-01-10T00:24:20.796Z,23.85
2023-01-10T00:26:53.098Z,23.85
2023-01-10T00:29:28.833Z,26.08
2023-01-10T00:31:56.758Z,24.58
2023-01-10T00:34:31.470Z,24.00
2023-01-10T00:36:59.816Z,24.85
2023-01-10T00:39:28.217Z,24.33
2023-01-10T00:42:14.268Z,26.05
2023-01-10T00:44:47.867Z,22.58
2023-01-10T00:49:42.812Z,24.63
2023-01-10T00:52:10.107Z,24.52
2023-01-10T00:54:38.561Z,24.17
2023-01-10T00:57:08.154Z,21.27
2023-01-10T00:59:38.628Z,22.08
2023-01-10T01:02:06.185Z,23.63
2023-01-10T01:04:34.749Z,25.55
2023-01-10T01:07:02.668Z,22.33
2023-01-10T01:09:56.103Z,26.08
2023-01-10T01:12:23.642Z,21.83
2023-01-10T01:14:51.088Z,24.38
2023-01-10T01:17:20.011Z,22.08
2023-01-10T01:19:47.591Z,22.17
2023-01-10T01:22:17.084Z,21.48
2023-01-10T01:24:44.525Z,21.35
2023-01-10T01:27:12.043Z,22.20
2023-01-10T01:29:43.250Z,20.88
2023-01-10T01:32:11.075Z,23.52
2023-01-10T01:34:38.438Z,27.83
2023-01-10T01:37:06.002Z,29.15
2023-01-10T01:39:34.329Z,21.67
2023-01-10T01:42:02.577Z,22.23
2023-01-10T01:44:39.659Z,21.73
2023-01-10T01:47:14.782Z,22.88
2023-01-10T01:49:45.712Z,21.13
2023-01-10T01:52:26.966Z,21.98
2023-01-10T01:54:58.975Z,18.92
2023-01-10T01:57:29.299Z,18.15
2023-01-10T01:59:58.116Z,15.48
2023-01-10T02:02:27.840Z,18.35
2023-01-10T02:05:08.823Z,17.10
2023-01-10T02:07:39.214Z,15.90
2023-01-10T02:10:13.904Z,17.33
2023-01-10T02:12:43.140Z,18.15
2023-01-10T02:15:17.973Z,20.35
2023-01-10T02:17:50.663Z,18.30
2023-01-10T02:20:20.514Z,15.90
2023-01-10T02:23:14.048Z,19.38
2023-01-10T02:25:54.004Z,18.90
2023-01-10T02:28:40.819Z,18.63
2023-01-10T02:31:30.063Z,17.00
2023-01-10T02:34:13.503Z,21.08
2023-01-10T02:36:59.045Z,20.10
2023-01-10T02:39:53.512Z,18.60
2023-01-10T02:42:30.891Z,15.57
2023-01-10T02:45:05.217Z,15.73
2023-01-10T02:47:38.180Z,14.55
2023-01-10T02:50:29.153Z,12.98
2023-01-10T02:53:04.158Z,16.13
2023-01-10T02:56:01.626Z,13.80
2023-01-10T02:58:58.529Z,14.27
2023-01-10T03:01:58.412Z,14.95
2023-01-10T03:04:32.228Z,17.02
2023-01-10T03:07:05.359Z,14.25
2023-01-10T03:09:56.006Z,16.27
2023-01-10T03:12:33.705Z,14.13
2023-01-10T03:15:03.461Z,16.40
2023-01-10T03:17:38.572Z,17.58
2023-01-10T03:20:07.573Z,15.25
2023-01-10T03:22:40.316Z,16.70
2023-01-10T03:25:10.738Z,15.68
2023-01-10T03:28:00.375Z,16.80
2023-01-10T03:30:44.801Z,17.77
2023-01-10T03:33:16.769Z,16.65
2023-01-10T03:35:51.297Z,19.60
2023-01-10T03:38:44.535Z,21.17
2023-01-10T03:41:33.730Z,64.90
2023-01-10T03:44:46.169Z,21.13
2023-01-10T03:47:23.081Z,19.90
2023-01-10T03:49:55.296Z,23.08
2023-01-10T03:52:24.296Z,17.90
2023-01-10T03:54:52.356Z,17.35
2023-01-10T03:57:22.506Z,54.80
2023-01-10T03:59:54.591Z,31.13
2023-01-10T04:02:21.687Z,19.77
2023-01-10T04:04:49.143Z,22.25
2023-01-10T04:07:17.658Z,35.13
2023-01-10T04:09:51.202Z,37.58
2023-01-10T04:14:47.338Z,24.10
2023-01-10T04:17:17.665Z,25.92
2023-01-10T04:19:45.496Z,25.00
2023-01-10T04:22:13.267Z,29.95
2023-01-10T04:24:40.879Z,18.02
2023-01-10T04:27:08.060Z,22.00
2023-01-10T04:29:36.471Z,16.70
2023-01-10T04:32:04.006Z,19.88
2023-01-10T04:34:39.489Z,20.20
2023-01-10T04:37:06.631Z,17.25
2023-01-10T04:39:34.034Z,24.35
2023-01-10T04:42:01.528Z,15.98
2023-01-10T04:44:34.498Z,17.58
2023-01-10T04:47:03.386Z,17.23
2023-01-10T04:49:32.516Z,16.60
2023-01-10T04:52:00.099Z,65.43
2023-01-10T04:54:28.499Z,24.00
2023-01-10T04:56:55.969Z,17.80
2023-01-10T04:59:23.340Z,16.95
2023-01-10T05:01:50.517Z,19.88
2023-01-10T05:04:20.790Z,18.23
2023-01-10T05:06:49.631Z,17.77
2023-01-10T05:09:16.945Z,17.88
2023-01-10T05:11:45.359Z,16.30
2023-01-10T05:14:12.857Z,17.75
2023-01-10T05:16:46.879Z,16.30
2023-01-10T05:19:15.290Z,16.42
2023-01-10T05:21:43.781Z,18.08
2023-01-10T05:24:11.234Z,16.80
2023-01-10T05:26:38.816Z,21.77
2023-01-10T05:29:07.267Z,17.63
2023-01-10T05:31:34.811Z,25.63
2023-01-10T05:34:02.143Z,22.45
2023-01-10T05:36:30.619Z,19.90
2023-01-10T05:38:58.574Z,18.88
2023-01-10T05:41:25.976Z,22.00
2023-01-10T05:43:53.601Z,27.27
2023-01-10T05:46:21.928Z,20.20
2023-01-10T05:48:49.377Z,17.98
2023-01-10T05:51:18.016Z,14.48
2023-01-10T05:53:45.395Z,22.58
2023-01-10T05:56:12.747Z,22.95
2023-01-10T05:58:40.474Z,20.88
2023-01-10T06:01:07.903Z,20.63
2023-01-10T06:03:35.137Z,18.88
2023-01-10T06:06:05.443Z,20.40
2023-01-10T06:08:32.880Z,26.17
2023-01-10T06:11:00.036Z,23.15
2023-01-10T06:13:27.570Z,20.02
2023-01-10T06:15:55.183Z,21.52
2023-01-10T06:18:23.587Z,20.88
2023-01-10T06:20:51.030Z,22.23
2023-01-10T06:23:18.485Z,18.58
2023-01-10T06:25:47.064Z,22.35
2023-01-10T06:28:16.345Z,24.02
2023-01-10T06:30:43.898Z,17.67
2023-01-10T06:33:13.426Z,19.88
2023-01-10T06:35:41.101Z,22.45
2023-01-10T06:38:08.307Z,23.85
2023-01-10T06:40:35.771Z,22.77
2023-01-10T06:43:03.199Z,18.92
2023-01-10T06:45:30.844Z,25.80
2023-01-10T06:47:58.290Z,28.10
2023-01-10T06:50:28.542Z,20.90
2023-01-10T06:53:01.215Z,22.30
2023-01-10T06:55:29.464Z,24.70
2023-01-10T06:58:02.705Z,22.77
2023-01-10T07:00:32.112Z,44.65
2023-01-10T07:03:01.053Z,29.85
2023-01-10T07:05:30.919Z,25.02
2023-01-10T07:07:59.086Z,25.20
2023-01-10T07:10:26.218Z,41.67
2023-01-10T07:12:56.687Z,36.33
2023-01-10T07:15:24.421Z,31.40
2023-01-10T07:17:51.749Z,30.48
2023-01-10T07:20:19.661Z,26.80
2023-01-10T07:22:55.148Z,34.90
2023-01-10T07:25:25.428Z,71.00
2023-01-10T07:27:58.509Z,148.52
2023-01-10T07:30:26.448Z,90.13
2023-01-10T07:32:55.672Z,32.47
2023-01-10T07:35:23.479Z,36.58
2023-01-10T07:37:50.762Z,28.42
2023-01-10T07:40:18.494Z,36.97
2023-01-10T07:42:45.699Z,40.95
2023-01-10T07:45:13.226Z,35.55
2023-01-10T07:47:41.686Z,19.65
2023-01-10T07:50:10.396Z,25.73
2023-01-10T07:52:38.791Z,20.67
2023-01-10T07:55:07.315Z,31.55
2023-01-10T07:57:41.676Z,22.70
2023-01-10T08:00:18.562Z,22.10
2023-01-10T08:02:46.415Z,27.65
2023-01-10T08:05:14.724Z,24.92
2023-01-10T08:07:42.311Z,28.40
2023-01-10T08:10:11.147Z,24.42
2023-01-10T08:12:38.747Z,29.33
2023-01-10T08:15:06.548Z,20.20
2023-01-10T08:17:35.574Z,27.05
2023-01-10T08:20:03.619Z,22.05
2023-01-10T08:22:32.166Z,23.90
2023-01-10T08:24:59.568Z,26.25
2023-01-10T08:27:26.634Z,29.05
2023-01-10T08:29:53.998Z,30.27
2023-01-10T08:32:21.131Z,25.80
2023-01-10T08:34:49.472Z,27.60
2023-01-10T08:37:16.944Z,21.77
2023-01-10T08:39:44.344Z,25.67
2023-01-10T08:42:11.782Z,22.70
2023-01-10T08:44:39.283Z,24.83
2023-01-10T08:47:06.654Z,22.65
2023-01-10T08:49:33.743Z,23.83
2023-01-10T08:52:02.771Z,27.58
2023-01-10T08:54:29.977Z,25.50
2023-01-10T08:56:57.498Z,23.83
2023-01-10T08:59:24.649Z,24.55
2023-01-10T09:01:51.880Z,24.63
2023-01-10T09:04:19.540Z,24.73
2023-01-10T09:06:46.959Z,25.33
2023-01-10T09:09:14.317Z,23.35
2023-01-10T09:11:41.997Z,26.10
2023-01-10T09:14:11.295Z,49.30
2023-01-10T09:16:38.710Z,31.10
2023-01-10T09:19:05.790Z,23.98
2023-01-10T09:21:33.143Z,31.83
2023-01-10T09:24:00.256Z,34.25
2023-01-10T09:26:27.499Z,22.83
2023-01-10T09:29:01.399Z,22.85
2023-01-10T09:31:30.735Z,33.40
2023-01-10T09:34:00.206Z,30.27
2023-01-10T09:36:27.565Z,30.52
2023-01-10T09:38:54.618Z,35.95
2023-01-10T09:41:57.578Z,41.40
2023-01-10T09:44:40.380Z,25.75
2023-01-10T09:47:24.814Z,24.25
2023-01-10T09:50:11.585Z,31.95
2023-01-10T09:52:54.232Z,35.47
2023-01-10T09:55:32.214Z,32.05
2023-01-10T09:58:10.662Z,33.60
2023-01-10T10:01:07.071Z,25.08
2023-01-10T10:03:41.035Z,44.35
2023-01-10T10:06:12.931Z,25.90
2023-01-10T10:08:45.908Z,38.83
2023-01-10T10:11:34.806Z,24.08
2023-01-10T10:14:32.064Z,24.70
2023-01-10T10:17:03.139Z,26.33
2023-01-10T10:19:53.135Z,26.50
2023-01-10T10:22:33.468Z,26.73
2023-01-10T10:25:20.119Z,31.08
2023-01-10T10:28:31.943Z,33.80
2023-01-10T10:31:49.282Z,33.45
2023-01-10T10:34:36.657Z,25.48
2023-01-10T10:37:13.388Z,33.22
2023-01-10T10:39:47.803Z,29.58
2023-01-10T10:42:17.804Z,27.85
2023-01-10T10:44:55.880Z,29.83
2023-01-10T10:47:27.858Z,24.80
2023-01-10T10:50:33.895Z,22.00
2023-01-10T10:53:05.816Z,21.65
2023-01-10T10:55:37.019Z,26.00
2023-01-10T10:58:07.661Z,69.93
2023-01-10T11:00:35.251Z,73.50
2023-01-10T11:03:14.135Z,37.15
2023-01-10T11:05:44.839Z,23.27
2023-01-10T11:08:19.345Z,23.13
2023-01-10T11:10:59.639Z,22.85
2023-01-10T11:13:49.744Z,25.02
2023-01-10T11:16:29.645Z,21.13
2023-01-10T11:19:18.556Z,19.52
2023-01-10T11:21:51.067Z,25.08
2023-01-10T11:24:26.356Z,25.42
2023-01-10T11:26:53.690Z,20.33
2023-01-10T11:29:39.086Z,20.58
2023-01-10T11:32:15.625Z,20.48
2023-01-10T11:34:50.789Z,21.52
2023-01-10T11:37:22.074Z,19.35
2023-01-10T11:39:49.631Z,22.95
2023-01-10T11:42:34.669Z,17.80
2023-01-10T11:45:20.737Z,19.13
2023-01-10T11:48:18.398Z,23.67
2023-01-10T11:50:50.754Z,21.05
2023-01-10T11:53:39.755Z,20.83
2023-01-10T11:56:11.142Z,16.00
2023-01-10T11:58:40.402Z,15.25
2023-01-10T12:01:25.023Z,16.60
2023-01-10T12:03:53.625Z,18.27
2023-01-10T12:06:23.359Z,18.40
2023-01-10T12:08:51.299Z,15.43
2023-01-10T12:11:27.659Z,14.50
2023-01-10T12:13:58.225Z,17.48
2023-01-10T12:16:31.295Z,14.60
2023-01-10T12:19:01.305Z,12.32
2023-01-10T12:21:35.150Z,12.15
2023-01-10T12:24:12.660Z,13.48
2023-01-10T12:26:42.933Z,13.60
2023-01-10T12:29:16.687Z,13.23
2023-01-10T12:31:44.130Z,11.73
2023-01-10T12:34:21.414Z,18.98
2023-01-10T12:37:07.785Z,11.48
2023-01-10T12:39:41.615Z,14.95
2023-01-10T12:43:01.195Z,14.23
2023-01-10T12:45:35.625Z,18.30
2023-01-10T12:48:24.707Z,18.58
2023-01-10T12:51:02.985Z,12.10
2023-01-10T12:53:39.372Z,12.13
2023-01-10T12:56:16.507Z,14.63
2023-01-10T12:58:54.461Z,13.40
2023-01-10T13:01:31.720Z,15.80
2023-01-10T13:04:05.942Z,20.85
2023-01-10T13:06:37.872Z,15.15
2023-01-10T13:09:11.862Z,16.00
2023-01-10T13:12:11.247Z,17.17
2023-01-10T13:15:38.736Z,14.65
2023-01-10T13:18:30.679Z,17.30
2023-01-10T13:21:28.262Z,13.70
2023-01-10T13:24:01.619Z,14.70
2023-01-10T13:26:54.963Z,13.82
2023-01-10T13:29:25.505Z,14.05
2023-01-10T13:31:57.770Z,18.65
2023-01-10T13:34:43.198Z,18.38
2023-01-10T13:37:22.783Z,30.08
2023-01-10T13:40:01.175Z,20.23
2023-01-10T13:42:54.732Z,18.50
2023-01-10T13:45:27.768Z,22.90
2023-01-10T13:47:55.875Z,33.67
2023-01-10T13:50:23.318Z,27.58
2023-01-10T13:52:55.627Z,17.73
2023-01-10T13:55:36.911Z,22.75
2023-01-10T13:58:14.880Z,18.67
2023-01-10T14:01:11.022Z,23.30
2023-01-10T14:03:59.792Z,23.67
2023-01-10T14:06:29.835Z,21.30
2023-01-10T14:08:58.963Z,23.55
2023-01-10T14:11:50.103Z,17.48
2023-01-10T14:14:30.303Z,20.60
2023-01-10T14:17:28.824Z,22.10
2023-01-10T14:20:20.619Z,22.85
2023-01-10T14:23:09.924Z,35.78
2023-01-10T14:25:39.862Z,25.02
2023-01-10T14:28:36.462Z,24.27
2023-01-10T14:31:23.685Z,24.05
2023-01-10T14:33:53.602Z,23.65
2023-01-10T14:36:22.906Z,20.20
2023-01-10T14:38:53.754Z,22.35
2023-01-10T14:41:44.823Z,27.15
2023-01-10T14:44:46.240Z,18.50
2023-01-10T14:47:35.244Z,25.83
2023-01-10T14:50:06.249Z,23.15
2023-01-10T14:52:42.657Z,33.05
2023-01-10T14:55:21.785Z,22.85
2023-01-10T14:57:58.016Z,28.70
2023-01-10T15:00:31.801Z,28.02
2023-01-10T15:03:03.520Z,24.52
2023-01-10T15:05:44.857Z,30.20
2023-01-10T15:08:24.586Z,32.08
2023-01-10T15:10:57.299Z,44.65
2023-01-10T15:13:28.631Z,30.53
2023-01-10T15:15:57.098Z,29.08
2023-01-10T15:18:40.862Z,28.52
2023-01-10T15:21:12.671Z,24.77
2023-01-10T15:23:44.341Z,23.48
2023-01-10T15:26:34.560Z,22.60
2023-01-10T15:29:22.536Z,26.95
2023-01-10T15:31:53.753Z,28.75
2023-01-10T15:34:24.100Z,29.67
2023-01-10T15:36:56.361Z,29.48
2023-01-10T15:39:33.032Z,27.48
2023-01-10T15:42:04.141Z,31.10
2023-01-10T15:44:39.846Z,27.92
2023-01-10T15:47:50.077Z,29.73
2023-01-10T15:50:33.131Z,65.28
2023-01-10T15:53:04.968Z,56.92
2023-01-10T15:55:50.960Z,33.15
2023-01-10T15:58:35.374Z,35.40
2023-01-10T16:01:05.067Z,35.67
2023-01-10T16:03:44.309Z,34.42
2023-01-10T16:06:29.401Z,31.58
2023-01-10T16:09:01.706Z,30.42
2023-01-10T16:11:57.661Z,26.83
2023-01-10T16:14:25.070Z,30.27
2023-01-10T16:16:52.582Z,32.47
2023-01-10T16:19:26.138Z,28.60
2023-01-10T16:24:35.128Z,22.45
2023-01-10T16:27:06.688Z,32.20
2023-01-10T16:29:34.936Z,33.25
2023-01-10T16:32:02.375Z,28.00
2023-01-10T16:34:31.167Z,22.20
2023-01-10T16:36:58.339Z,23.48
2023-01-10T16:39:27.782Z,22.98
2023-01-10T16:42:14.522Z,21.73
2023-01-10T16:44:41.982Z,22.60
2023-01-10T16:47:15.796Z,23.52
2023-01-10T16:49:43.202Z,21.92
2023-01-10T16:52:14.914Z,21.27
2023-01-10T16:54:42.333Z,28.63
2023-01-10T16:57:12.494Z,26.70
2023-01-10T16:59:39.734Z,24.13
2023-01-10T17:02:18.160Z,23.08
2023-01-10T17:04:45.836Z,28.55
2023-01-10T17:07:13.408Z,22.08
2023-01-10T17:09:46.566Z,28.13
2023-01-10T17:12:19.855Z,21.85
2023-01-10T17:14:48.579Z,23.73
2023-01-10T17:17:18.214Z,19.42
2023-01-10T17:19:47.900Z,25.95
2023-01-10T17:22:16.021Z,21.77
2023-01-10T17:24:44.475Z,21.77
2023-01-10T17:27:12.271Z,22.83
2023-01-10T17:29:40.164Z,27.63
2023-01-10T17:32:08.747Z,17.45
2023-01-10T17:34:37.806Z,14.85
2023-01-10T17:37:06.087Z,14.15
2023-01-10T17:39:33.364Z,14.10
2023-01-10T17:42:01.256Z,18.88
2023-01-10T17:44:28.736Z,16.38
2023-01-10T17:46:57.401Z,22.13
2023-01-10T17:49:26.117Z,21.92
2023-01-10T17:51:55.479Z,17.80
2023-01-10T17:54:23.987Z,33.83
2023-01-10T17:56:51.299Z,26.42
2023-01-10T17:59:18.740Z,18.65
2023-01-10T18:01:46.310Z,16.05
2023-01-10T18:04:13.755Z,13.55
2023-01-10T18:06:42.272Z,17.70
2023-01-10T18:09:11.460Z,11.40
2023-01-10T18:11:39.259Z,13.75
2023-01-10T18:14:27.169Z,29.50
2023-01-10T18:16:55.681Z,30.17
2023-01-10T18:19:23.267Z,23.65
2023-01-10T18:21:50.707Z,16.20
2023-01-10T18:24:18.448Z,16.10
2023-01-10T18:26:47.042Z,13.75
2023-01-10T18:29:15.510Z,17.73
2023-01-10T18:31:44.926Z,15.90
2023-01-10T18:34:12.252Z,14.55
2023-01-10T18:36:40.385Z,17.40
2023-01-10T18:39:09.184Z,17.13
2023-01-10T18:41:37.995Z,17.77
2023-01-10T18:44:05.356Z,15.68
2023-01-10T18:46:34.252Z,16.58
2023-01-10T18:49:01.754Z,23.90
2023-01-10T18:51:30.383Z,24.10
2023-01-10T18:53:57.719Z,23.15
2023-01-10T18:56:25.259Z,22.52
2023-01-10T18:58:53.790Z,23.55
2023-01-10T19:01:22.497Z,25.35
2023-01-10T19:03:52.541Z,30.55
2023-01-10T19:06:23.010Z,27.40
2023-01-10T19:08:51.952Z,33.72
2023-01-10T19:11:20.090Z,38.03
2023-01-10T19:13:50.563Z,44.67
2023-01-10T19:16:22.072Z,42.53
2023-01-10T19:18:54.394Z,32.85
2023-01-10T19:21:23.454Z,42.38
2023-01-10T19:23:56.022Z,89.40
2023-01-10T19:26:24.710Z,34.33
2023-01-10T19:28:53.105Z,36.10
2023-01-10T19:31:26.428Z,27.35
2023-01-10T19:33:57.477Z,27.92
2023-01-10T19:36:25.646Z,33.00
2023-01-10T19:38:58.533Z,35.38
2023-01-10T19:41:30.067Z,39.63
2023-01-10T19:44:03.281Z,31.35
2023-01-10T19:46:37.209Z,37.90
2023-01-10T19:49:18.486Z,36.83
2023-01-10T19:51:56.299Z,33.72
2023-01-10T19:54:25.053Z,39.22
2023-01-10T19:56:52.831Z,49.95
2023-01-10T19:59:20.512Z,46.72
2023-01-10T20:01:48.455Z,38.67
2023-01-10T20:04:16.453Z,37.53
2023-01-10T20:06:44.645Z,28.40
2023-01-10T20:09:15.916Z,28.38
2023-01-10T20:11:46.385Z,37.95
2023-01-10T20:14:20.485Z,28.25
2023-01-10T20:16:49.464Z,30.83
2023-01-10T20:19:18.086Z,30.73
2023-01-10T20:21:46.154Z,26.80
2023-01-10T20:24:20.632Z,31.85
2023-01-10T20:26:52.207Z,43.70
2023-01-10T20:29:21.320Z,37.30
2023-01-10T20:31:54.444Z,35.72
2023-01-10T20:34:23.247Z,35.30
2023-01-10T20:36:52.939Z,37.75
2023-01-10T20:39:23.737Z,30.35
2023-01-10T20:41:52.217Z,30.40
2023-01-10T20:44:20.420Z,31.83
2023-01-10T20:46:48.128Z,37.60
2023-01-10T20:49:15.629Z,43.78
2023-01-10T20:51:43.165Z,39.13
2023-01-10T20:54:11.113Z,40.20
2023-01-10T20:56:39.262Z,31.98
2023-01-10T20:59:07.746Z,37.22
2023-01-10T21:01:35.977Z,32.22
2023-01-10T21:04:06.984Z,36.28
2023-01-10T21:06:35.752Z,36.38
2023-01-10T21:09:04.422Z,35.20
2023-01-10T21:11:32.456Z,54.72
2023-01-10T21:14:00.591Z,61.67
2023-01-10T21:16:28.354Z,93.13
2023-01-10T21:18:55.525Z,57.42
2023-01-10T21:21:23.276Z,39.22
2023-01-10T21:23:54.769Z,78.68
2023-01-10T21:26:23.423Z,82.45
2023-01-10T21:28:52.102Z,55.42
2023-01-10T21:31:25.084Z,25.92
2023-01-10T21:33:54.449Z,27.15
2023-01-10T21:36:22.056Z,30.77
2023-01-10T21:38:49.843Z,36.33
2023-01-10T21:41:38.846Z,32.22
2023-01-10T21:44:07.699Z,30.20
2023-01-10T21:46:35.035Z,29.63
2023-01-10T21:49:02.768Z,33.65
2023-01-10T21:51:30.404Z,34.78
2023-01-10T21:53:59.396Z,31.63
2023-01-10T21:56:26.815Z,30.98
2023-01-10T21:58:54.311Z,33.95
2023-01-10T22:01:22.857Z,29.58
2023-01-10T22:03:51.270Z,32.55
2023-01-10T22:06:18.865Z,35.67
2023-01-10T22:08:46.295Z,37.00
2023-01-10T22:11:13.536Z,33.88
2023-01-10T22:13:41.021Z,31.20
2023-01-10T22:16:08.618Z,35.55
2023-01-10T22:18:35.959Z,36.10
2023-01-10T22:21:03.701Z,38.75
2023-01-10T22:23:37.008Z,45.20
2023-01-10T22:26:05.960Z,36.72
2023-01-10T22:28:35.619Z,42.35
2023-01-10T22:31:05.681Z,40.33
2023-01-10T22:33:37.047Z,38.33
2023-01-10T22:36:13.610Z,45.70
2023-01-10T22:38:41.948Z,39.70
2023-01-10T22:41:13.905Z,32.10
2023-01-10T22:43:42.150Z,35.85
2023-01-10T22:46:10.017Z,27.50
2023-01-10T22:48:38.620Z,27.52
2023-01-10T22:51:06.346Z,23.92
2023-01-10T22:53:34.263Z,23.77
2023-01-10T22:56:03.298Z,23.27
2023-01-10T22:58:31.622Z,24.75
2023-01-10T23:03:44.956Z,29.50
2023-01-10T23:06:13.333Z,25.50
2023-01-10T23:08:42.359Z,22.88
2023-01-10T23:11:13.256Z,25.25
2023-01-10T23:13:41.222Z,26.55
2023-01-10T23:16:28.913Z,26.67
2023-01-10T23:18:57.855Z,21.52
2023-01-10T23:21:29.603Z,21.08
2023-01-10T23:23:57.176Z,26.23
2023-01-10T23:26:24.426Z,34.22
2023-01-10T23:28:52.588Z,34.67
2023-01-10T23:31:23.578Z,100.10
2023-01-10T23:33:51.495Z,22.77
2023-01-10T23:36:19.983Z,24.63
2023-01-10T23:38:47.760Z,23.77
2023-01-10T23:41:15.165Z,21.35
2023-01-10T23:43:42.925Z,22.23
2023-01-10T23:46:11.683Z,24.08
2023-01-10T23:48:39.293Z,22.35
2023-01-10T23:51:08.091Z,21.48
2023-01-10T23:53:35.675Z,21.60
2023-01-10T23:56:21.149Z,21.42
2023-01-10T23:58:52.963Z,22.50
